Time;durP1;ratioP1;P1;durP2;ratioP2;P2;SDS_P1;SDS_P2;PMS_P1;PMS_P2;Temp;Humidity;BMP_temperature;BMP_pressure;BME280_temperature;BME280_humidity;BME280_pressure;Samples;Min_cycle;Max_cycle;Signal;HPM_P1;HPM_P2
2021/08/17 00:01:44;;;;;;;0.95;0.88;;;22.90;54.30;;;26.60;37.26;100349.66;5133181;28;20085;-34
2021/08/17 00:04:10;;;;;;;0.93;0.88;;;22.90;54.30;;;26.61;37.25;100359.38;5133016;28;20051;-35
2021/08/17 00:06:36;;;;;;;1.10;1.00;;;22.90;54.30;;;26.61;37.16;100355.84;5132695;28;20055;-35
2021/08/17 00:09:02;;;;;;;1.15;0.85;;;22.90;54.30;;;26.58;37.13;100369.53;5132839;28;20138;-33
2021/08/17 00:11:28;;;;;;;0.98;0.90;;;22.90;54.30;;;26.60;37.15;100371.09;5132692;28;20047;-34
2021/08/17 00:13:55;;;;;;;1.02;0.93;;;22.90;54.30;;;26.61;37.33;100374.63;5133357;28;20043;-34
2021/08/17 00:16:21;;;;;;;0.85;0.85;;;22.90;54.40;;;26.58;37.16;100367.72;5132714;28;20104;-34
2021/08/17 00:18:47;;;;;;;1.00;0.90;;;22.90;54.40;;;26.59;37.23;100368.56;5133212;28;20047;-34
2021/08/17 00:21:14;;;;;;;1.25;0.95;;;22.90;54.30;;;26.59;37.27;100374.75;5132827;28;20043;-33
2021/08/17 00:23:41;;;;;;;0.98;0.80;;;22.90;54.40;;;26.58;37.45;100365.03;5132895;28;20050;-34
2021/08/17 00:26:06;;;;;;;0.98;0.90;;;22.90;54.40;;;26.59;37.32;100371.25;5132916;28;20047;-34
2021/08/17 00:28:32;;;;;;;0.93;0.70;;;22.90;54.40;;;26.56;37.19;100367.03;5132775;28;20058;-33
2021/08/17 00:30:58;;;;;;;1.10;0.82;;;22.90;54.40;;;26.57;37.31;100376.75;5133017;28;20051;-33
2021/08/17 00:33:24;;;;;;;1.23;0.82;;;22.90;54.40;;;26.57;37.32;100379.44;5132873;28;20482;-34
2021/08/17 00:35:52;;;;;;;0.80;0.80;;;22.80;54.30;;;26.56;37.19;100375.06;5132726;28;20043;-34
2021/08/17 00:38:18;;;;;;;0.80;0.80;;;22.80;54.40;;;26.56;37.20;100382.25;5102876;28;20105;-34
2021/08/17 00:40:44;;;;;;;0.77;0.77;;;22.80;54.40;;;26.53;37.44;100377.16;5132981;27;20047;-34
2021/08/17 00:43:10;;;;;;;0.70;0.70;;;22.90;54.40;;;26.54;37.41;100382.38;5136228;28;20479;-35
2021/08/17 00:45:36;;;;;;;1.10;0.90;;;22.80;54.40;;;26.53;37.24;100380.72;5136212;28;20093;-34
2021/08/17 00:48:02;;;;;;;0.93;0.80;;;22.80;54.40;;;26.53;37.30;100378.03;5136402;28;20039;-35
2021/08/17 00:50:34;;;;;;;0.70;0.70;;;22.80;54.40;;;26.51;37.29;100392.56;5136735;28;20035;-35
2021/08/17 00:53:01;;;;;;;1.00;0.90;;;22.80;54.40;;;26.51;37.38;100387.19;5136114;28;20039;-35
2021/08/17 00:55:27;;;;;;;1.10;0.82;;;22.80;54.40;;;26.52;37.32;100395.09;5136049;28;20043;-34
2021/08/17 00:57:54;;;;;;;1.00;0.90;;;22.80;54.40;;;26.51;37.34;100390.72;5135926;28;20050;-35
2021/08/17 01:00:19;;;;;;;1.55;0.77;;;22.80;54.40;;;26.52;37.37;100380.84;5135886;28;20130;-35
2021/08/17 01:02:46;;;;;;;1.00;0.90;;;22.80;54.40;;;26.51;37.35;100382.66;5136495;28;20491;-35
2021/08/17 01:05:15;;;;;;;1.08;0.93;;;22.80;54.40;;;26.52;37.40;100391.56;5135772;28;20042;-35
2021/08/17 01:07:41;;;;;;;1.00;0.90;;;22.80;54.40;;;26.51;37.35;100390.72;5135812;28;20047;-35
2021/08/17 01:10:09;;;;;;;0.70;0.70;;;22.80;54.50;;;26.48;37.34;100387.47;5135781;28;20047;-36
2021/08/17 01:12:39;;;;;;;0.85;0.70;;;22.80;54.40;;;26.49;37.53;100395.38;5117398;28;20517;-35
2021/08/17 01:15:08;;;;;;;1.25;1.00;;;22.80;54.50;;;26.50;37.22;100402.44;5135732;28;20051;-34
2021/08/17 01:17:34;;;;;;;0.95;0.95;;;22.80;54.50;;;26.50;37.47;100402.44;5136055;28;20043;-35
2021/08/17 01:20:00;;;;;;;0.98;0.80;;;22.80;54.50;;;26.48;37.35;100408.91;5135813;28;20042;-35
2021/08/17 01:22:26;;;;;;;0.93;0.85;;;22.80;54.50;;;26.49;37.44;100416.81;5135560;28;20051;-35
2021/08/17 01:24:52;;;;;;;0.85;0.80;;;22.80;54.50;;;26.47;37.45;100407.25;5135743;28;20047;-35
2021/08/17 01:27:18;;;;;;;0.93;0.70;;;22.80;54.50;;;26.47;37.37;100409.94;5135717;28;20043;-35
2021/08/17 01:29:44;;;;;;;1.15;0.82;;;22.80;54.50;;;26.47;37.28;100408.09;5135701;28;20047;-35
2021/08/17 01:32:12;;;;;;;0.85;0.85;;;22.80;54.50;;;26.49;37.36;100407.94;5135512;28;20936;-35
2021/08/17 01:34:39;;;;;;;1.17;0.82;;;22.80;54.50;;;26.49;37.28;100427.56;5135857;28;20046;-35
2021/08/17 01:37:05;;;;;;;0.77;0.77;;;22.80;54.50;;;26.50;37.44;100415.00;5135451;28;20462;-35
2021/08/17 01:39:31;;;;;;;1.10;1.00;;;22.80;54.50;;;26.45;37.56;100418.09;5135679;28;20043;-35
2021/08/17 01:41:57;;;;;;;0.80;0.80;;;22.80;54.50;;;26.48;37.31;100423.19;5135293;28;20053;-35
2021/08/17 01:44:23;;;;;;;0.80;0.80;;;22.80;54.50;;;26.47;37.35;100424.16;5135148;28;20471;-34
2021/08/17 01:46:50;;;;;;;0.88;0.88;;;22.70;54.50;;;26.48;37.36;100430.38;5135216;28;20521;-34
2021/08/17 01:49:21;;;;;;;0.80;0.80;;;22.70;54.50;;;26.46;37.27;100438.56;5135210;28;20040;-34
2021/08/17 01:51:48;;;;;;;0.77;0.77;;;22.80;54.60;;;26.47;37.37;100437.56;5135027;27;20062;-34
2021/08/17 01:54:17;;;;;;;0.70;0.70;;;22.70;54.50;;;26.44;37.37;100436.00;5135057;28;20047;-34
2021/08/17 01:56:45;;;;;;;1.00;0.90;;;22.80;54.60;;;26.45;37.45;100447.59;5135081;28;20074;-34
2021/08/17 01:59:14;;;;;;;0.77;0.77;;;22.70;55.00;;;26.45;37.53;100450.28;5134940;28;20047;-34
2021/08/17 02:01:42;;;;;;;0.60;0.60;;;22.70;54.50;;;26.43;37.53;100450.41;5134439;28;20047;-34
2021/08/17 02:04:08;;;;;;;0.90;0.90;;;22.70;54.60;;;26.46;37.33;100459.16;5134980;28;20484;-34
2021/08/17 02:06:33;;;;;;;0.70;0.70;;;22.70;54.60;;;26.44;37.41;100468.19;5134802;28;20096;-34
2021/08/17 02:09:01;;;;;;;0.77;0.77;;;22.70;54.60;;;26.45;37.39;100469.03;5135401;28;20066;-34
2021/08/17 02:11:27;;;;;;;0.80;0.80;;;22.70;54.60;;;26.44;37.49;100478.06;5134441;28;20058;-34
2021/08/17 02:13:52;;;;;;;0.75;0.73;;;22.70;54.60;;;26.42;37.44;100477.38;5116267;28;20055;-34
2021/08/17 02:16:18;;;;;;;0.85;0.85;;;22.70;54.60;;;26.43;37.51;100485.28;5134673;28;20123;-34
2021/08/17 02:18:44;;;;;;;0.90;0.90;;;22.70;54.60;;;26.43;37.40;100479.06;5134383;28;20393;-34
2021/08/17 02:21:10;;;;;;;0.80;0.77;;;22.70;54.60;;;26.41;37.42;100481.88;5134272;28;20437;-34
2021/08/17 02:23:35;;;;;;;0.85;0.80;;;22.70;54.60;;;26.42;37.35;100488.94;5135099;28;20051;-34
2021/08/17 02:26:01;;;;;;;0.73;0.73;;;22.70;54.60;;;26.40;37.23;100476.66;5134517;28;20043;-34
2021/08/17 02:28:27;;;;;;;1.20;1.00;;;22.70;54.60;;;26.40;37.55;100476.66;5134518;28;20047;-34
2021/08/17 02:30:53;;;;;;;0.70;0.70;;;22.70;54.60;;;26.41;37.36;100483.69;5134897;28;20043;-34
2021/08/17 02:33:20;;;;;;;1.00;0.90;;;22.70;54.60;;;26.40;37.37;100495.44;5134483;28;20051;-34
2021/08/17 02:35:46;;;;;;;0.70;0.70;;;22.70;54.60;;;26.39;37.43;100488.34;5134517;28;20104;-34
2021/08/17 02:38:13;;;;;;;1.17;0.90;;;22.70;54.60;;;26.40;37.46;100496.25;5134338;28;20130;-34
2021/08/17 02:40:40;;;;;;;0.80;0.80;;;22.70;54.60;;;26.40;37.53;100512.34;5134324;28;20134;-34
2021/08/17 02:43:06;;;;;;;0.88;0.82;;;22.70;54.60;;;26.39;37.65;100483.00;5134316;28;20043;-34
2021/08/17 02:45:32;;;;;;;0.75;0.75;;;22.70;54.60;;;26.38;37.51;100497.38;5134268;28;20517;-34
2021/08/17 02:48:00;;;;;;;0.98;0.90;;;22.70;54.70;;;26.37;37.47;100504.59;5134179;28;20047;-34
2021/08/17 02:50:27;;;;;;;1.00;0.90;;;22.70;54.70;;;26.35;37.40;100495.84;5134232;28;20502;-34
2021/08/17 02:52:53;;;;;;;0.70;0.70;;;22.70;54.60;;;26.37;37.58;100482.31;5134443;28;20047;-34
2021/08/17 02:55:19;;;;;;;0.73;0.73;;;22.70;54.60;;;26.37;37.59;100498.38;5134125;28;20047;-34
2021/08/17 02:57:53;;;;;;;0.70;0.70;;;22.70;54.70;;;26.35;37.51;100489.66;5133565;28;20047;-34
2021/08/17 03:00:20;;;;;;;0.73;0.73;;;22.70;54.70;;;26.34;37.44;100483.41;5134026;28;20047;-34
2021/08/17 03:02:46;;;;;;;0.77;0.77;;;22.60;54.60;;;26.34;37.56;100485.25;5133900;28;20050;-34
2021/08/17 03:05:12;;;;;;;0.90;0.70;;;22.70;54.70;;;26.37;37.25;100498.38;5133195;27;20476;-34
2021/08/17 03:07:51;;;;;;;0.80;0.80;;;22.60;54.60;;;26.34;37.59;100507.53;5134089;28;20047;-34
2021/08/17 03:10:17;;;;;;;0.93;0.80;;;22.60;54.60;;;26.34;37.46;100491.44;5134219;28;20047;-35
2021/08/17 03:12:42;;;;;;;0.77;0.77;;;22.60;54.60;;;26.36;37.69;100504.72;5133745;28;20054;-34
2021/08/17 03:15:09;;;;;;;0.80;0.80;;;22.60;54.60;;;26.34;37.54;100502.19;5134384;28;20075;-34
2021/08/17 03:17:37;;;;;;;0.93;0.80;;;22.60;54.60;;;26.33;37.60;100500.50;5133590;28;20408;-34
2021/08/17 03:20:06;;;;;;;0.77;0.77;;;22.60;54.70;;;26.30;37.46;100505.28;5133675;28;20043;-34
2021/08/17 03:22:32;;;;;;;0.70;0.70;;;22.60;54.70;;;26.32;37.58;100517.56;5133753;28;20546;-34
2021/08/17 03:24:58;;;;;;;0.80;0.80;;;22.60;54.70;;;26.32;37.51;100520.25;5133871;28;20040;-34
2021/08/17 03:27:24;;;;;;;0.80;0.80;;;22.60;54.70;;;26.31;37.64;100528.41;5133395;28;20391;-35
2021/08/17 03:29:49;;;;;;;0.80;0.80;;;22.60;54.70;;;26.32;37.60;100528.28;5134035;28;20111;-34
2021/08/17 03:32:15;;;;;;;0.60;0.60;;;22.60;54.70;;;26.31;37.57;100528.41;5133891;28;20066;-34
2021/08/17 03:34:41;;;;;;;0.95;0.80;;;22.60;54.70;;;26.29;37.68;100520.50;5133459;28;20059;-35
2021/08/17 03:37:06;;;;;;;0.80;0.80;;;22.60;54.70;;;26.32;37.50;100536.31;5133571;28;20387;-34
2021/08/17 03:39:32;;;;;;;0.70;0.63;;;22.60;54.70;;;26.30;37.75;100532.94;5133397;28;20391;-34
2021/08/17 03:41:58;;;;;;;1.48;0.90;;;22.60;54.70;;;26.30;37.43;100540.13;5134014;28;20043;-34
2021/08/17 03:44:25;;;;;;;0.85;0.80;;;22.60;54.70;;;26.30;37.57;100535.63;5133409;28;20058;-34
2021/08/17 03:46:52;;;;;;;0.98;0.90;;;22.60;54.70;;;26.29;37.52;100533.06;5133403;28;20039;-34
2021/08/17 03:49:19;;;;;;;0.75;0.70;;;22.60;54.80;;;26.27;37.46;100533.22;5133231;28;20126;-33
2021/08/17 03:51:47;;;;;;;0.70;0.70;;;22.60;54.70;;;26.27;37.49;100533.22;5133546;28;20113;-34
2021/08/17 03:54:14;;;;;;;0.60;0.60;;;22.60;54.70;;;26.27;37.56;100532.38;5133267;28;20051;-33
2021/08/17 03:56:40;;;;;;;0.68;0.68;;;22.60;54.80;;;26.28;37.55;100532.22;5133574;28;20042;-34
2021/08/17 03:59:06;;;;;;;0.80;0.80;;;22.60;54.80;;;26.30;37.49;100537.47;5133856;28;20357;-33
2021/08/17 04:01:31;;;;;;;0.63;0.63;;;22.60;54.80;;;26.30;37.44;100549.03;5132880;28;20389;-34
2021/08/17 04:03:57;;;;;;;0.90;0.90;;;22.60;54.80;;;26.25;37.48;100541.38;5133112;28;20086;-34
2021/08/17 04:06:23;;;;;;;0.60;0.60;;;22.60;54.80;;;26.29;37.60;100539.28;5133303;28;20047;-34
2021/08/17 04:08:49;;;;;;;0.80;0.80;;;22.60;54.80;;;26.27;37.64;100549.28;5133228;28;20051;-33
2021/08/17 04:11:14;;;;;;;0.75;0.73;;;22.60;54.80;;;26.27;37.55;100554.66;5133220;28;20051;-34
2021/08/17 04:13:40;;;;;;;0.98;0.93;;;22.60;54.80;;;26.29;37.63;100555.34;5133030;28;20051;-34
2021/08/17 04:16:07;;;;;;;1.00;0.82;;;22.60;54.80;;;26.27;37.61;100554.66;5134059;27;20495;-34
2021/08/17 04:18:33;;;;;;;0.93;0.80;;;22.60;54.80;;;26.27;37.63;100548.44;5136603;28;20484;-34
2021/08/17 04:20:59;;;;;;;0.77;0.77;;;22.60;54.80;;;26.28;37.48;100545.63;5136631;28;20058;-34
2021/08/17 04:23:24;;;;;;;0.90;0.85;;;22.50;54.80;;;26.27;37.45;100553.81;5136634;28;20051;-34
2021/08/17 04:25:50;;;;;;;0.55;0.55;;;22.60;54.80;;;26.28;37.50;100558.16;5136573;28;20062;-34
2021/08/17 04:28:16;;;;;;;0.80;0.80;;;22.50;54.80;;;26.28;37.44;100552.81;5136757;28;20047;-34
2021/08/17 04:30:42;;;;;;;0.88;0.88;;;22.50;54.80;;;26.28;37.61;100561.72;5136869;28;20093;-34
2021/08/17 04:33:08;;;;;;;0.90;0.90;;;22.60;54.80;;;26.28;37.52;100561.72;5136332;28;20047;-34
2021/08/17 04:35:34;;;;;;;0.70;0.70;;;22.60;54.80;;;26.25;37.51;100556.63;5136997;28;20050;-34
2021/08/17 04:37:59;;;;;;;0.70;0.70;;;22.50;54.80;;;26.28;37.56;100564.41;5136108;28;20043;-34
2021/08/17 04:40:25;;;;;;;0.60;0.60;;;22.50;54.80;;;26.28;37.65;100567.06;5136552;28;20396;-34
2021/08/17 04:42:51;;;;;;;0.73;0.73;;;22.60;54.80;;;26.29;37.50;100565.22;5136271;28;20131;-34
2021/08/17 04:45:17;;;;;;;0.73;0.65;;;22.50;54.70;;;26.28;37.53;100567.06;5136042;28;20140;-34
2021/08/17 04:47:51;;;;;;;0.80;0.80;;;22.60;54.80;;;26.28;37.62;100568.88;5135977;28;20047;-34
2021/08/17 04:50:19;;;;;;;0.80;0.68;;;22.50;54.70;;;26.30;37.58;100575.81;5136151;28;20136;-34
2021/08/17 04:52:46;;;;;;;0.88;0.80;;;22.60;54.80;;;26.29;37.58;100578.63;5136369;28;20096;-34
2021/08/17 04:55:12;;;;;;;0.90;0.70;;;22.50;54.70;;;26.29;37.49;100578.63;5135978;28;20055;-35
2021/08/17 04:57:48;;;;;;;0.70;0.70;;;22.60;54.80;;;26.27;37.35;100581.44;5135968;28;20043;-35
2021/08/17 05:00:16;;;;;;;1.00;0.88;;;22.60;54.80;;;26.29;37.40;100586.66;5135930;28;20042;-34
2021/08/17 05:02:42;;;;;;;0.90;0.85;;;22.60;54.80;;;26.28;37.50;100591.19;5135884;28;20050;-34
2021/08/17 05:05:08;;;;;;;0.77;0.63;;;22.60;54.70;;;26.29;37.35;100590.19;5135948;28;20039;-34
2021/08/17 05:07:40;;;;;;;0.70;0.70;;;22.60;54.70;;;26.29;37.54;100594.72;5136420;28;20543;-34
2021/08/17 05:10:09;;;;;;;0.80;0.80;;;22.60;54.70;;;26.28;37.44;100601.91;5135845;28;20047;-34
2021/08/17 05:12:36;;;;;;;0.80;0.80;;;22.50;54.70;;;26.29;37.50;100600.91;5135822;28;20130;-34
2021/08/17 05:15:07;;;;;;;1.20;0.85;;;22.60;54.70;;;26.29;37.50;100594.72;5117275;28;20058;-34
2021/08/17 05:17:34;;;;;;;0.70;0.70;;;22.60;54.70;;;26.35;37.53;100611.09;5135634;28;20043;-34
2021/08/17 05:20:01;;;;;;;0.73;0.73;;;22.60;54.70;;;26.30;37.38;100607.97;5135644;28;20039;-34
2021/08/17 05:22:26;;;;;;;0.95;0.70;;;22.60;55.20;;;26.32;37.31;100600.66;5135525;28;20043;-34
2021/08/17 05:24:52;;;;;;;0.70;0.70;;;22.60;54.60;;;26.38;37.26;100620.69;5135908;28;20047;-34
2021/08/17 05:27:18;;;;;;;0.98;0.90;;;22.60;54.60;;;26.39;37.31;100619.72;5134924;27;20043;-34
2021/08/17 05:29:44;;;;;;;0.73;0.73;;;22.60;54.60;;;26.37;37.22;100622.53;5135738;28;20070;-34
2021/08/17 05:32:10;;;;;;;0.88;0.82;;;22.60;54.60;;;26.39;37.33;100623.22;5135531;28;20484;-34
2021/08/17 05:34:36;;;;;;;0.80;0.80;;;22.60;54.60;;;26.36;37.26;100614.63;5135456;28;20055;-34
2021/08/17 05:37:02;;;;;;;1.00;0.90;;;22.60;54.60;;;26.35;37.30;100621.81;5135961;28;20046;-34
2021/08/17 05:39:28;;;;;;;0.80;0.80;;;22.60;54.60;;;26.35;37.28;100629.88;5135272;28;20503;-34
2021/08/17 05:41:53;;;;;;;1.05;0.90;;;22.60;54.60;;;26.36;37.69;100631.56;5135175;28;20047;-34
2021/08/17 05:44:20;;;;;;;0.80;0.80;;;22.60;54.70;;;26.33;37.52;100621.13;5135385;28;20051;-35
2021/08/17 05:46:47;;;;;;;0.75;0.75;;;22.60;54.60;;;26.34;37.46;100627.31;5135158;28;20043;-35
2021/08/17 05:49:14;;;;;;;0.95;0.85;;;22.60;54.60;;;26.36;37.44;100631.56;5135399;28;20079;-35
2021/08/17 05:51:40;;;;;;;0.80;0.70;;;22.60;54.60;;;26.34;37.27;100622.78;5135135;28;20043;-34
2021/08/17 05:54:06;;;;;;;0.70;0.70;;;22.50;54.60;;;26.34;37.31;100622.78;5135334;28;20055;-35
2021/08/17 05:56:32;;;;;;;0.60;0.60;;;22.60;54.60;;;26.37;37.32;100622.53;5134834;28;20051;-34
2021/08/17 05:58:58;;;;;;;0.65;0.65;;;22.60;54.60;;;26.37;37.39;100622.53;5135148;28;20138;-35
2021/08/17 06:01:24;;;;;;;0.82;0.82;;;22.60;54.50;;;26.39;37.23;100620.56;5135342;28;20047;-35
2021/08/17 06:03:50;;;;;;;0.77;0.70;;;22.60;54.40;;;26.42;37.21;100622.13;5134943;28;20134;-35
2021/08/17 06:06:16;;;;;;;0.88;0.88;;;22.70;54.40;;;26.48;37.24;100623.41;5134738;28;20055;-35
2021/08/17 06:08:42;;;;;;;0.82;0.70;;;22.70;54.30;;;26.51;37.12;100629.31;5134469;28;20210;-35
2021/08/17 06:11:07;;;;;;;0.60;0.60;;;22.80;54.20;;;26.59;37.11;100634.84;5135175;28;20054;-34
2021/08/17 06:13:33;;;;;;;1.13;0.90;;;22.90;54.20;;;26.69;36.84;100642.97;5134767;28;20070;-34
2021/08/17 06:15:59;;;;;;;0.70;0.70;;;22.90;53.90;;;26.75;36.85;100638.91;5135008;28;20420;-34
2021/08/17 06:18:25;;;;;;;1.70;1.10;;;22.90;53.80;;;26.78;36.63;100634.09;5134656;28;20051;-35
2021/08/17 06:20:51;;;;;;;1.17;0.95;;;23.00;53.80;;;26.84;36.52;100640.72;5134523;28;20050;-35
2021/08/17 06:23:17;;;;;;;0.77;0.77;;;23.00;53.70;;;26.83;36.50;100635.50;5134584;28;20051;-35
2021/08/17 06:25:43;;;;;;;0.70;0.70;;;22.90;54.20;;;26.80;36.56;100632.13;5116064;28;20096;-35
2021/08/17 06:28:11;;;;;;;0.80;0.80;;;22.90;53.80;;;26.83;36.43;100652.47;5134794;28;20043;-35
2021/08/17 06:30:39;;;;;;;1.02;0.77;;;22.90;53.80;;;26.83;36.39;100638.19;5134798;28;20116;-35
2021/08/17 06:33:06;;;;;;;0.70;0.70;;;22.90;53.80;;;26.84;36.49;100646.09;5134510;28;20133;-35
2021/08/17 06:35:32;;;;;;;0.73;0.73;;;23.00;53.90;;;26.92;36.44;100645.41;5134273;28;20053;-35
2021/08/17 06:37:59;;;;;;;0.88;0.70;;;23.10;53.60;;;27.01;36.47;100651.75;5134451;27;20051;-35
2021/08/17 06:40:26;;;;;;;0.80;0.80;;;23.20;53.50;;;27.06;36.24;100653.03;5133501;28;20043;-35
2021/08/17 06:42:53;;;;;;;0.70;0.70;;;23.20;53.30;;;27.03;36.22;100650.66;5134217;28;20485;-34
2021/08/17 06:45:19;;;;;;;0.85;0.70;;;23.10;53.40;;;27.01;36.23;100657.97;5134201;28;20047;-35
2021/08/17 06:47:48;;;;;;;0.80;0.80;;;23.00;53.50;;;26.95;36.38;100658.56;5134542;28;20054;-34
2021/08/17 06:50:14;;;;;;;0.77;0.70;;;23.00;53.60;;;26.92;36.44;100661.50;5134248;28;20403;-34
2021/08/17 06:52:40;;;;;;;0.70;0.70;;;22.90;53.70;;;26.86;36.39;100656.69;5134069;28;20050;-34
2021/08/17 06:55:07;;;;;;;0.80;0.70;;;22.90;53.80;;;26.82;36.38;100658.81;5134169;28;20043;-35
2021/08/17 06:57:33;;;;;;;0.80;0.80;;;22.90;53.90;;;26.83;36.34;100654.28;5133994;28;20131;-34
2021/08/17 06:59:59;;;;;;;0.80;0.80;;;22.90;53.80;;;26.85;36.50;100653.16;5133906;28;20050;-35
2021/08/17 07:02:24;;;;;;;0.75;0.70;;;23.00;54.20;;;26.89;36.21;100656.41;5134002;28;20552;-35
2021/08/17 07:04:50;;;;;;;1.05;0.60;;;23.00;53.60;;;26.90;36.13;100660.81;5133830;28;20043;-35
2021/08/17 07:07:16;;;;;;;0.85;0.60;;;23.00;53.60;;;26.91;36.22;100662.47;5133884;28;20043;-35
2021/08/17 07:09:41;;;;;;;0.60;0.60;;;23.00;53.60;;;26.91;36.40;100662.47;5134314;28;20103;-35
2021/08/17 07:12:08;;;;;;;0.70;0.70;;;23.00;53.70;;;26.88;36.21;100657.38;5133870;28;20051;-35
2021/08/17 07:14:34;;;;;;;0.68;0.68;;;23.00;53.70;;;26.89;36.44;100659.09;5134062;28;20513;-35
2021/08/17 07:17:00;;;;;;;0.68;0.68;;;23.00;53.60;;;26.92;36.35;100658.81;5134080;28;20059;-35
2021/08/17 07:19:26;;;;;;;0.65;0.65;;;23.00;53.50;;;26.93;36.23;100650.63;5113830;28;20052;-34
2021/08/17 07:21:53;;;;;;;0.70;0.70;;;23.00;53.40;;;26.94;36.09;100652.31;5133594;28;20051;-35
2021/08/17 07:24:19;;;;;;;0.70;0.60;;;23.00;53.50;;;27.00;36.23;100658.97;5133513;28;20049;-35
2021/08/17 07:26:46;;;;;;;0.98;0.80;;;23.00;53.40;;;27.04;36.18;100663.06;5133858;28;20047;-35
2021/08/17 07:29:12;;;;;;;0.70;0.70;;;23.20;53.30;;;27.04;36.07;100656.84;5133522;28;20072;-34
2021/08/17 07:31:38;;;;;;;0.80;0.77;;;23.10;53.30;;;27.10;36.02;100659.00;5133500;28;20039;-35
2021/08/17 07:34:05;;;;;;;0.70;0.70;;;23.20;53.30;;;27.14;35.80;100655.88;5133508;28;20054;-35
2021/08/17 07:36:32;;;;;;;1.23;0.80;;;23.20;53.10;;;27.15;35.60;100654.88;5133313;28;20061;-35
2021/08/17 07:38:58;;;;;;;0.63;0.63;;;23.20;53.10;;;27.14;35.91;100663.06;5133305;28;20051;-35
2021/08/17 07:41:24;;;;;;;0.93;0.70;;;23.10;53.30;;;27.08;35.85;100669.00;5133284;28;20116;-35
2021/08/17 07:43:49;;;;;;;0.73;0.70;;;23.10;53.40;;;27.06;36.20;100665.59;5133150;28;20131;-35
2021/08/17 07:46:15;;;;;;;1.13;1.00;;;23.10;53.40;;;27.05;35.97;100654.03;5133700;28;20066;-36
2021/08/17 07:48:41;;;;;;;0.70;0.70;;;23.10;53.40;;;27.06;36.11;100665.59;5133165;28;20081;-35
2021/08/17 07:51:07;;;;;;;1.38;0.80;;;23.10;53.30;;;27.09;36.02;100663.50;5135942;27;20380;-34
2021/08/17 07:53:32;;;;;;;1.10;0.70;;;23.10;53.20;;;27.10;36.10;100665.19;5136804;28;20045;-34
2021/08/17 07:55:58;;;;;;;1.05;0.80;;;23.10;53.30;;;27.05;35.94;100658.53;5137010;28;20039;-35
2021/08/17 07:58:24;;;;;;;0.85;0.80;;;23.10;53.30;;;27.07;35.89;100664.63;5136729;28;20129;-35
2021/08/17 08:00:50;;;;;;;0.77;0.70;;;23.10;53.30;;;27.07;35.92;100672.69;5136962;28;20051;-34
2021/08/17 08:03:16;;;;;;;0.70;0.70;;;23.10;53.30;;;27.07;35.85;100665.47;5136720;28;20069;-35
2021/08/17 08:05:42;;;;;;;0.60;0.60;;;23.10;53.20;;;27.09;35.97;100676.91;5136377;28;20487;-35
2021/08/17 08:08:07;;;;;;;0.82;0.63;;;23.10;53.30;;;27.10;36.02;100688.50;5136573;28;20043;-34
2021/08/17 08:10:33;;;;;;;1.30;0.60;;;23.10;53.30;;;27.11;35.86;100674.09;5136630;28;20047;-35
2021/08/17 08:12:59;;;;;;;1.00;0.70;;;23.10;53.20;;;27.12;35.69;100689.22;5136463;28;20064;-35
2021/08/17 08:15:25;;;;;;;0.70;0.70;;;23.10;53.20;;;27.07;35.94;100678.06;5136654;28;20125;-35
2021/08/17 08:17:50;;;;;;;0.70;0.70;;;23.10;53.20;;;27.09;35.85;100684.97;5136572;28;20043;-35
2021/08/17 08:20:17;;;;;;;0.65;0.65;;;23.10;53.20;;;27.11;35.79;100696.41;5136483;28;20043;-35
2021/08/17 08:22:43;;;;;;;0.70;0.70;;;23.10;53.20;;;27.10;35.87;100693.88;5136644;28;20063;-34
2021/08/17 08:25:09;;;;;;;0.82;0.80;;;23.10;53.20;;;27.10;35.79;100694.72;5136542;28;20039;-34
2021/08/17 08:27:36;;;;;;;0.68;0.68;;;23.10;53.20;;;27.09;36.05;100694.84;5136552;28;20379;-34
2021/08/17 08:30:04;;;;;;;0.82;0.60;;;23.10;53.20;;;27.11;35.88;100698.25;5136658;28;20054;-34
2021/08/17 08:32:30;;;;;;;0.77;0.70;;;23.10;53.20;;;27.04;35.88;100700.63;5136574;28;20126;-34
2021/08/17 08:34:56;;;;;;;0.60;0.60;;;23.10;53.20;;;27.04;35.93;100705.16;5136572;28;20047;-34
2021/08/17 08:37:21;;;;;;;0.68;0.68;;;23.10;53.30;;;27.00;35.81;100699.22;5136237;28;20480;-34
2021/08/17 08:39:47;;;;;;;0.70;0.70;;;23.00;53.30;;;26.99;36.08;100698.34;5136265;28;20480;-34
2021/08/17 08:42:13;;;;;;;0.80;0.73;;;23.00;53.40;;;26.95;35.94;100693.44;5136166;28;20062;-34
2021/08/17 08:44:39;;;;;;;0.90;0.60;;;23.00;53.40;;;26.94;36.13;100705.13;5135951;28;20046;-34
2021/08/17 08:47:05;;;;;;;0.80;0.80;;;23.00;53.40;;;26.98;36.03;100718.16;5136095;28;20559;-34
2021/08/17 08:49:33;;;;;;;0.70;0.70;;;23.10;53.30;;;26.97;36.06;100713.75;5136030;28;20134;-34
2021/08/17 08:52:02;;;;;;;0.70;0.70;;;23.10;53.30;;;26.92;35.92;100716.00;5136171;28;20097;-34
2021/08/17 08:54:28;;;;;;;0.60;0.60;;;23.00;53.40;;;26.94;36.18;100715.88;5135843;28;20047;-35
2021/08/17 08:56:54;;;;;;;0.70;0.60;;;23.00;53.40;;;26.92;36.24;100712.47;5135720;28;20078;-33
2021/08/17 08:59:21;;;;;;;1.00;0.90;;;23.00;53.50;;;26.87;36.17;100706.69;5135573;28;20388;-34
2021/08/17 09:01:50;;;;;;;0.60;0.60;;;23.00;53.50;;;26.86;36.22;100713.03;5135319;27;20043;-33
2021/08/17 09:04:16;;;;;;;0.60;0.60;;;23.00;53.50;;;26.86;36.38;100729.97;5135693;28;20522;-34
2021/08/17 09:06:53;;;;;;;0.73;0.73;;;23.00;53.60;;;26.80;36.26;100720.63;5135653;28;20119;-34
2021/08/17 09:09:19;;;;;;;0.80;0.70;;;23.00;53.60;;;26.83;36.21;100721.34;5135658;28;20039;-34
2021/08/17 09:11:50;;;;;;;1.17;0.77;;;22.90;53.60;;;26.78;36.44;100727.97;5135597;28;20047;-35
2021/08/17 09:14:30;;;;;;;0.85;0.80;;;23.00;53.60;;;26.80;36.35;100730.53;5135589;28;20085;-34
2021/08/17 09:16:59;;;;;;;0.70;0.70;;;23.00;53.60;;;26.84;36.39;100728.41;5135759;28;20446;-34
2021/08/17 09:19:34;;;;;;;0.52;0.50;;;23.00;53.50;;;26.88;36.24;100732.50;5135556;28;20039;-34
2021/08/17 09:22:21;;;;;;;0.60;0.60;;;23.00;53.40;;;26.90;36.41;100735.94;5135498;28;20057;-35
2021/08/17 09:24:53;;;;;;;0.70;0.70;;;23.00;53.40;;;26.91;36.35;100733.06;5135232;28;20476;-34
2021/08/17 09:27:31;;;;;;;1.33;0.70;;;23.10;53.40;;;26.89;36.15;100740.41;5135589;28;20502;-35
2021/08/17 09:30:06;;;;;;;0.77;0.77;;;23.10;53.40;;;26.90;36.17;100733.25;5135314;28;20434;-36
2021/08/17 09:32:32;;;;;;;1.23;0.75;;;23.10;53.30;;;26.93;36.24;100746.34;5135314;28;20476;-35
2021/08/17 09:35:03;;;;;;;0.82;0.80;;;23.00;53.30;;;26.89;36.26;100742.25;5135321;28;20058;-35
2021/08/17 09:37:34;;;;;;;;;;;23.00;53.30;;;27.04;35.92;100743.56;5135783;28;20047;-36
2021/08/17 09:40:02;;;;;;;1.05;0.60;;;23.00;53.40;;;26.95;35.96;100749.78;5135229;28;20279;-35
2021/08/17 09:42:31;;;;;;;0.70;0.70;;;23.00;53.40;;;26.89;36.33;100751.16;5135184;28;20491;-36
2021/08/17 09:45:06;;;;;;;0.70;0.70;;;23.00;53.40;;;26.88;36.23;100752.16;5134971;28;20053;-35
2021/08/17 09:47:34;;;;;;;1.00;0.80;;;23.00;53.40;;;26.85;36.33;100749.75;5134751;28;20078;-36
2021/08/17 09:50:23;;;;;;;0.70;0.63;;;23.00;53.50;;;26.85;36.29;100743.50;5135191;28;20051;-34
2021/08/17 09:53:02;;;;;;;0.82;0.60;;;23.00;53.50;;;26.84;36.18;100750.72;5135476;28;20051;-34
2021/08/17 09:55:28;;;;;;;0.70;0.70;;;23.00;53.50;;;26.83;36.34;100743.66;5115012;28;20067;-35
2021/08/17 09:57:54;;;;;;;0.90;0.68;;;23.00;53.50;;;26.85;36.13;100748.88;5135054;28;20100;-36
2021/08/17 10:00:20;;;;;;;0.80;0.80;;;23.00;53.50;;;26.82;36.18;100735.75;5134981;28;20107;-35
2021/08/17 10:02:48;;;;;;;0.85;0.80;;;23.00;53.50;;;26.82;36.23;100746.50;5135515;28;20091;-34
2021/08/17 10:05:15;;;;;;;0.57;0.57;;;23.00;53.40;;;26.90;36.15;100738.59;5134857;28;20047;-34
2021/08/17 10:07:42;;;;;;;0.60;0.60;;;23.10;53.30;;;26.97;36.09;100740.59;5134539;28;20054;-35
2021/08/17 10:10:11;;;;;;;0.60;0.60;;;23.20;53.20;;;27.05;35.96;100734.53;5134789;28;20593;-35
2021/08/17 10:12:37;;;;;;;0.80;0.80;;;23.20;53.00;;;27.10;35.83;100736.81;5134568;28;20043;-35